createdAt,value
2023-01-18T00:01:19.088Z,26.45
2023-01-18T00:03:46.374Z,20.63
2023-01-18T00:06:13.731Z,23.30
2023-01-18T00:08:42.571Z,25.70
2023-01-18T00:11:11.816Z,26.98
2023-01-18T00:13:39.825Z,22.52
2023-01-18T00:16:19.147Z,29.38
2023-01-18T00:18:57.613Z,25.67
2023-01-18T00:21:26.076Z,28.77
2023-01-18T00:23:57.036Z,26.50
2023-01-18T00:26:24.120Z,24.02
2023-01-18T00:28:51.299Z,21.27
2023-01-18T00:31:20.601Z,22.98
2023-01-18T00:33:49.969Z,21.70
2023-01-18T00:36:17.856Z,22.77
2023-01-18T00:38:51.492Z,19.33
2023-01-18T00:41:19.042Z,22.30
2023-01-18T00:43:46.469Z,23.10
2023-01-18T00:46:18.865Z,22.63
2023-01-18T00:48:45.918Z,21.42
2023-01-18T00:51:16.215Z,24.52
2023-01-18T00:53:45.749Z,25.85
2023-01-18T00:56:16.711Z,25.02
2023-01-18T00:58:44.163Z,23.75
2023-01-18T01:01:12.149Z,23.10
2023-01-18T01:03:58.428Z,24.08
2023-01-18T01:06:45.005Z,22.80
2023-01-18T01:09:17.590Z,22.98
2023-01-18T01:12:05.177Z,23.60
2023-01-18T01:14:53.641Z,25.08
2023-01-18T01:17:39.300Z,22.50
2023-01-18T01:20:25.552Z,24.92
2023-01-18T01:23:11.195Z,23.90
2023-01-18T01:25:56.963Z,23.65
2023-01-18T01:28:24.614Z,24.45
2023-01-18T01:30:51.897Z,25.92
2023-01-18T01:33:19.515Z,20.80
2023-01-18T01:35:46.474Z,24.08
2023-01-18T01:38:13.373Z,26.33
2023-01-18T01:40:40.490Z,25.88
2023-01-18T01:43:13.964Z,22.50
2023-01-18T01:45:41.179Z,24.20
2023-01-18T01:48:09.988Z,23.00
2023-01-18T01:50:39.852Z,25.02
2023-01-18T01:53:08.911Z,23.90
2023-01-18T01:55:39.423Z,20.13
2023-01-18T01:58:22.049Z,23.27
2023-01-18T02:00:49.126Z,19.58
2023-01-18T02:03:19.018Z,21.02
2023-01-18T02:05:51.513Z,20.85
2023-01-18T02:08:27.977Z,23.83
2023-01-18T02:10:55.024Z,24.38
2023-01-18T02:13:24.270Z,23.23
2023-01-18T02:16:18.674Z,24.45
2023-01-18T02:19:31.947Z,23.03
2023-01-18T02:22:10.072Z,25.75
2023-01-18T02:25:04.971Z,24.50
2023-01-18T02:27:51.044Z,25.20
2023-01-18T02:30:30.615Z,24.35
2023-01-18T02:33:14.354Z,25.50
2023-01-18T02:35:45.415Z,25.95
2023-01-18T02:38:26.446Z,24.92
2023-01-18T02:41:14.439Z,23.98
2023-01-18T02:44:02.000Z,24.13
2023-01-18T02:46:31.139Z,24.90
2023-01-18T02:49:00.704Z,25.33
2023-01-18T02:51:27.926Z,24.05
2023-01-18T02:53:54.891Z,27.48
2023-01-18T02:56:41.262Z,22.75
2023-01-18T02:59:17.370Z,21.30
2023-01-18T03:02:05.823Z,23.45
2023-01-18T03:06:00.243Z,24.52
2023-01-18T03:08:45.121Z,22.75
2023-01-18T03:14:03.605Z,22.45
2023-01-18T03:16:55.559Z,25.52
2023-01-18T03:19:55.403Z,23.90
2023-01-18T03:22:45.269Z,23.88
2023-01-18T03:25:16.662Z,23.88
2023-01-18T03:28:04.913Z,21.30
2023-01-18T03:30:53.094Z,21.17
2023-01-18T03:33:41.397Z,21.33
2023-01-18T03:36:13.647Z,24.60
2023-01-18T03:38:43.190Z,21.63
2023-01-18T03:41:12.384Z,22.80
2023-01-18T03:43:41.852Z,21.13
2023-01-18T03:46:09.097Z,23.40
2023-01-18T03:48:37.144Z,25.52
2023-01-18T03:51:26.374Z,25.35
2023-01-18T03:54:12.782Z,22.60
2023-01-18T03:56:50.785Z,25.05
2023-01-18T03:59:18.059Z,27.20
2023-01-18T04:01:48.459Z,25.55
2023-01-18T04:04:15.867Z,23.70
2023-01-18T04:06:43.093Z,25.58
2023-01-18T04:09:11.955Z,26.15
2023-01-18T04:11:39.116Z,33.20
2023-01-18T04:14:06.364Z,29.52
2023-01-18T04:16:33.762Z,28.40
2023-01-18T04:19:00.942Z,25.77
2023-01-18T04:21:28.237Z,26.35
2023-01-18T04:23:55.589Z,27.35
2023-01-18T04:26:22.834Z,24.05
2023-01-18T04:28:49.777Z,25.73
2023-01-18T04:31:17.027Z,29.38
2023-01-18T04:33:44.342Z,24.77
2023-01-18T04:36:11.426Z,26.35
2023-01-18T04:38:38.649Z,27.45
2023-01-18T04:41:06.853Z,26.77
2023-01-18T04:43:34.283Z,28.02
2023-01-18T04:46:01.632Z,22.23
2023-01-18T04:48:28.657Z,20.45
2023-01-18T04:50:55.707Z,19.17
2023-01-18T04:53:22.809Z,23.00
2023-01-18T04:55:49.733Z,20.05
2023-01-18T04:58:16.826Z,24.33
2023-01-18T05:00:44.094Z,15.68
2023-01-18T05:03:12.863Z,15.07
2023-01-18T05:05:40.358Z,16.55
2023-01-18T05:08:07.367Z,13.80
2023-01-18T05:10:34.496Z,15.30
2023-01-18T05:13:02.073Z,14.85
2023-01-18T05:15:29.602Z,14.50
2023-01-18T05:17:56.671Z,13.70
2023-01-18T05:20:23.700Z,15.10
2023-01-18T05:22:50.722Z,12.73
2023-01-18T05:25:20.595Z,11.75
2023-01-18T05:27:47.589Z,11.98
2023-01-18T05:30:14.894Z,12.20
2023-01-18T05:32:41.841Z,17.55
2023-01-18T05:35:09.591Z,13.10
2023-01-18T05:37:36.506Z,14.50
2023-01-18T05:40:04.252Z,15.40
2023-01-18T05:42:31.344Z,16.45
2023-01-18T05:44:58.308Z,16.92
2023-01-18T05:47:25.541Z,14.98
2023-01-18T05:49:52.533Z,15.20
2023-01-18T05:52:19.567Z,16.02
2023-01-18T05:54:46.772Z,18.00
2023-01-18T05:57:13.918Z,19.17
2023-01-18T05:59:40.909Z,19.17
2023-01-18T06:02:07.932Z,17.73
2023-01-18T06:04:36.357Z,13.68
2023-01-18T06:07:03.555Z,13.30
2023-01-18T06:09:30.518Z,13.95
2023-01-18T06:11:57.585Z,14.82
2023-01-18T06:14:24.667Z,14.02
2023-01-18T06:16:51.825Z,14.20
2023-01-18T06:19:19.417Z,14.45
2023-01-18T06:21:47.652Z,14.00
2023-01-18T06:24:14.637Z,13.38
2023-01-18T06:26:41.621Z,14.57
2023-01-18T06:29:08.661Z,18.83
2023-01-18T06:31:35.704Z,17.13
2023-01-18T06:34:09.203Z,13.68
2023-01-18T06:36:39.572Z,11.18
2023-01-18T06:39:07.019Z,13.52
2023-01-18T06:41:34.497Z,18.00
2023-01-18T06:44:01.827Z,11.38
2023-01-18T06:46:29.034Z,8.30
2023-01-18T06:48:56.190Z,7.63
2023-01-18T06:51:23.667Z,8.63
2023-01-18T06:53:50.997Z,8.45
2023-01-18T06:56:18.153Z,11.57
2023-01-18T06:58:46.199Z,14.07
2023-01-18T07:01:13.454Z,10.23
2023-01-18T07:03:40.782Z,14.60
2023-01-18T07:06:08.029Z,15.77
2023-01-18T07:08:35.716Z,12.85
2023-01-18T07:11:08.251Z,9.73
2023-01-18T07:13:35.502Z,7.93
2023-01-18T07:16:02.628Z,8.70
2023-01-18T07:18:30.923Z,7.05
2023-01-18T07:21:00.097Z,7.13
2023-01-18T07:23:28.161Z,8.05
2023-01-18T07:26:00.216Z,7.28
2023-01-18T07:28:28.248Z,7.63
2023-01-18T07:30:55.317Z,7.63
2023-01-18T07:33:22.263Z,7.05
2023-01-18T07:35:53.068Z,7.85
2023-01-18T07:38:21.091Z,7.68
2023-01-18T07:40:48.732Z,9.57
2023-01-18T07:43:17.357Z,8.65
2023-01-18T07:45:46.183Z,10.18
2023-01-18T07:48:13.503Z,10.07
2023-01-18T07:50:40.478Z,15.05
2023-01-18T07:53:09.338Z,9.75
2023-01-18T07:55:38.875Z,9.98
2023-01-18T07:58:05.916Z,10.20
2023-01-18T08:00:33.081Z,9.50
2023-01-18T08:03:00.948Z,9.15
2023-01-18T08:05:29.759Z,9.48
2023-01-18T08:07:56.704Z,12.60
2023-01-18T08:10:27.552Z,12.98
2023-01-18T08:12:54.542Z,9.55
2023-01-18T08:15:21.841Z,13.70
2023-01-18T08:17:51.158Z,13.13
2023-01-18T08:20:18.615Z,25.40
2023-01-18T08:22:45.830Z,18.50
2023-01-18T08:25:12.954Z,10.15
2023-01-18T08:27:40.311Z,16.27
2023-01-18T08:30:08.307Z,15.38
2023-01-18T08:32:35.370Z,26.58
2023-01-18T08:35:02.562Z,17.70
2023-01-18T08:37:29.700Z,14.45
2023-01-18T08:39:57.004Z,8.90
2023-01-18T08:42:24.125Z,17.50
2023-01-18T08:44:51.140Z,9.82
2023-01-18T08:47:18.200Z,16.25
2023-01-18T08:49:46.749Z,12.27
2023-01-18T08:52:15.265Z,9.77
2023-01-18T08:54:42.158Z,8.50
2023-01-18T08:57:09.382Z,18.05
2023-01-18T08:59:36.585Z,13.30
2023-01-18T09:02:03.770Z,8.38
2023-01-18T09:04:31.029Z,14.68
2023-01-18T09:06:58.268Z,14.73
2023-01-18T09:09:25.467Z,12.27
2023-01-18T09:11:52.701Z,11.82
2023-01-18T09:14:20.182Z,51.42
2023-01-18T09:16:47.324Z,47.92
2023-01-18T09:19:14.861Z,9.57
2023-01-18T09:21:42.039Z,9.05
2023-01-18T09:24:08.968Z,12.98
2023-01-18T09:26:35.914Z,13.25
2023-01-18T09:29:02.966Z,9.90
2023-01-18T09:31:30.734Z,10.57
2023-01-18T09:34:06.326Z,11.25
2023-01-18T09:36:44.933Z,10.48
2023-01-18T09:39:11.925Z,7.68
2023-01-18T09:41:44.635Z,26.00
2023-01-18T09:44:36.253Z,39.03
2023-01-18T09:47:25.844Z,12.15
2023-01-18T09:50:14.873Z,7.85
2023-01-18T09:52:56.261Z,18.38
2023-01-18T09:55:34.037Z,9.90
2023-01-18T09:58:30.466Z,7.78
2023-01-18T10:01:07.739Z,7.65
2023-01-18T10:03:50.353Z,7.55
2023-01-18T10:06:29.240Z,5.97
2023-01-18T10:09:07.017Z,7.88
2023-01-18T10:11:44.844Z,6.32
2023-01-18T10:14:22.312Z,6.95
2023-01-18T10:16:56.838Z,9.05
2023-01-18T10:22:20.543Z,8.17
2023-01-18T10:24:55.513Z,10.68
2023-01-18T10:27:31.944Z,12.68
2023-01-18T10:30:25.853Z,7.95
2023-01-18T10:32:58.007Z,8.40
2023-01-18T10:35:30.197Z,5.95
2023-01-18T10:38:02.769Z,7.03
2023-01-18T10:40:29.908Z,6.32
2023-01-18T10:43:04.094Z,5.03
2023-01-18T10:45:34.539Z,6.28
2023-01-18T10:48:25.731Z,5.72
2023-01-18T10:50:55.845Z,5.68
2023-01-18T10:53:31.562Z,6.43
2023-01-18T10:56:10.743Z,6.07
2023-01-18T10:59:01.272Z,5.70
2023-01-18T11:01:36.679Z,13.93
2023-01-18T11:04:24.192Z,9.48
2023-01-18T11:06:58.013Z,4.93
2023-01-18T11:09:48.692Z,8.13
2023-01-18T11:12:41.510Z,5.53
2023-01-18T11:15:14.453Z,7.15
2023-01-18T11:17:58.494Z,7.82
2023-01-18T11:20:36.738Z,8.50
2023-01-18T11:23:14.238Z,16.83
2023-01-18T11:25:58.450Z,15.30
2023-01-18T11:28:28.340Z,13.80
2023-01-18T11:30:59.810Z,8.27
2023-01-18T11:33:29.465Z,13.10
2023-01-18T11:36:01.263Z,11.30
2023-01-18T11:38:35.233Z,10.60
2023-01-18T11:41:13.345Z,7.00
2023-01-18T11:44:03.207Z,9.85
2023-01-18T11:46:48.016Z,10.68
2023-01-18T11:49:27.967Z,10.48
2023-01-18T11:52:24.040Z,7.30
2023-01-18T11:55:00.364Z,6.88
2023-01-18T11:57:28.492Z,7.13
2023-01-18T11:59:55.742Z,6.65
2023-01-18T12:02:36.408Z,7.95
2023-01-18T12:05:25.747Z,13.60
2023-01-18T12:08:24.265Z,10.65
2023-01-18T12:11:04.644Z,8.95
2023-01-18T12:13:59.949Z,11.07
2023-01-18T12:19:27.607Z,6.88
2023-01-18T12:22:32.577Z,9.48
2023-01-18T12:25:25.592Z,11.35
2023-01-18T12:28:04.064Z,12.18
2023-01-18T12:30:45.926Z,6.95
2023-01-18T12:33:43.099Z,11.32
2023-01-18T12:36:33.452Z,14.40
2023-01-18T12:39:11.070Z,8.32
2023-01-18T12:41:55.359Z,8.50
2023-01-18T12:44:49.388Z,8.07
2023-01-18T12:47:38.407Z,7.93
2023-01-18T12:50:28.257Z,8.13
2023-01-18T12:53:01.455Z,11.95
2023-01-18T12:55:32.600Z,18.73
2023-01-18T12:58:02.338Z,22.25
2023-01-18T13:00:39.756Z,21.67
2023-01-18T13:03:15.207Z,13.75
2023-01-18T13:05:52.580Z,9.32
2023-01-18T13:08:40.348Z,7.05
2023-01-18T13:11:14.442Z,8.10
2023-01-18T13:13:44.993Z,6.90
2023-01-18T13:16:33.118Z,6.53
2023-01-18T13:19:04.149Z,7.80
2023-01-18T13:21:53.393Z,6.82
2023-01-18T13:24:53.489Z,8.23
2023-01-18T13:27:21.368Z,8.80
2023-01-18T13:29:48.937Z,9.55
2023-01-18T13:32:44.976Z,12.20
2023-01-18T13:35:21.675Z,17.83
2023-01-18T13:37:55.721Z,20.40
2023-01-18T13:40:53.061Z,15.85
2023-01-18T13:43:32.754Z,8.57
2023-01-18T13:46:09.804Z,11.20
2023-01-18T13:48:46.337Z,12.85
2023-01-18T13:51:47.776Z,17.38
2023-01-18T13:54:23.632Z,16.85
2023-01-18T13:57:04.577Z,11.38
2023-01-18T13:59:38.709Z,9.30
2023-01-18T14:02:42.615Z,12.10
2023-01-18T14:05:28.236Z,10.07
2023-01-18T14:07:59.353Z,10.52
2023-01-18T14:10:36.129Z,9.85
2023-01-18T14:13:06.535Z,8.40
2023-01-18T14:15:40.372Z,7.68
2023-01-18T14:18:24.639Z,7.80
2023-01-18T14:21:18.114Z,10.30
2023-01-18T14:24:27.921Z,9.40
2023-01-18T14:26:58.203Z,8.68
2023-01-18T14:29:45.861Z,9.27
2023-01-18T14:32:23.246Z,7.82
2023-01-18T14:35:01.911Z,7.20
2023-01-18T14:37:34.624Z,7.35
2023-01-18T14:40:06.252Z,6.93
2023-01-18T14:42:35.463Z,7.30
2023-01-18T14:45:05.479Z,7.88
2023-01-18T14:47:34.207Z,8.98
2023-01-18T14:50:04.147Z,12.75
2023-01-18T14:52:34.246Z,9.93
2023-01-18T14:55:01.540Z,7.57
2023-01-18T14:57:28.708Z,11.18
2023-01-18T15:00:23.652Z,8.38
2023-01-18T15:02:50.972Z,12.30
2023-01-18T15:05:23.594Z,8.75
2023-01-18T15:07:55.212Z,9.18
2023-01-18T15:10:24.173Z,10.27
2023-01-18T15:12:54.922Z,9.80
2023-01-18T15:15:38.672Z,9.15
2023-01-18T15:18:10.708Z,8.93
2023-01-18T15:21:21.988Z,8.68
2023-01-18T15:23:52.555Z,6.85
2023-01-18T15:26:38.783Z,9.88
2023-01-18T15:29:19.901Z,8.25
2023-01-18T15:31:50.297Z,8.98
2023-01-18T15:34:28.969Z,7.43
2023-01-18T15:36:57.484Z,8.60
2023-01-18T15:39:24.665Z,9.32
2023-01-18T15:41:53.898Z,8.63
2023-01-18T15:44:45.899Z,10.35
2023-01-18T15:47:24.417Z,12.55
2023-01-18T15:49:57.765Z,8.90
2023-01-18T15:52:45.258Z,8.07
2023-01-18T15:55:26.217Z,5.40
2023-01-18T15:58:07.044Z,5.75
2023-01-18T16:00:41.949Z,7.65
2023-01-18T16:03:23.584Z,7.45
2023-01-18T16:06:08.870Z,7.93
2023-01-18T16:08:35.984Z,8.13
2023-01-18T16:11:03.302Z,10.65
2023-01-18T16:13:38.909Z,12.75
2023-01-18T16:16:20.452Z,11.73
2023-01-18T16:19:29.040Z,8.75
2023-01-18T16:21:59.708Z,10.60
2023-01-18T16:24:32.220Z,8.43
2023-01-18T16:27:10.267Z,7.75
2023-01-18T16:29:50.029Z,9.65
2023-01-18T16:32:30.475Z,12.63
2023-01-18T16:35:11.046Z,20.35
2023-01-18T16:37:41.464Z,18.35
2023-01-18T16:40:09.628Z,19.42
2023-01-18T16:42:57.315Z,23.30
2023-01-18T16:45:24.660Z,35.67
2023-01-18T16:47:51.826Z,34.20
2023-01-18T16:50:19.307Z,26.95
2023-01-18T16:52:46.320Z,27.63
2023-01-18T16:55:14.645Z,21.70
2023-01-18T16:57:42.539Z,22.60
2023-01-18T17:00:23.351Z,20.17
2023-01-18T17:02:51.013Z,19.42
2023-01-18T17:05:20.840Z,16.08
2023-01-18T17:07:48.650Z,16.73
2023-01-18T17:10:34.139Z,12.23
2023-01-18T17:13:01.476Z,15.73
2023-01-18T17:15:30.783Z,16.27
2023-01-18T17:17:58.148Z,14.48
2023-01-18T17:20:27.156Z,17.40
2023-01-18T17:22:55.637Z,14.70
2023-01-18T17:25:23.781Z,16.25
2023-01-18T17:27:51.188Z,14.43
2023-01-18T17:30:21.703Z,14.90
2023-01-18T17:32:49.864Z,14.70
2023-01-18T17:35:21.828Z,11.88
2023-01-18T17:37:54.572Z,11.90
2023-01-18T17:40:39.336Z,10.52
2023-01-18T17:43:22.149Z,8.93
2023-01-18T17:46:00.730Z,8.15
2023-01-18T17:48:28.844Z,7.95
2023-01-18T17:50:56.099Z,7.50
2023-01-18T17:53:23.191Z,8.63
2023-01-18T17:55:50.583Z,10.98
2023-01-18T17:58:17.798Z,8.65
2023-01-18T18:00:45.398Z,9.07
2023-01-18T18:03:13.177Z,8.80
2023-01-18T18:05:40.630Z,11.90
2023-01-18T18:08:09.039Z,7.88
2023-01-18T18:10:36.220Z,8.45
2023-01-18T18:13:03.997Z,8.32
2023-01-18T18:15:31.429Z,10.00
2023-01-18T18:17:58.696Z,9.63
2023-01-18T18:20:26.072Z,9.90
2023-01-18T18:22:53.416Z,9.35
2023-01-18T18:25:20.818Z,11.82
2023-01-18T18:27:48.061Z,11.15
2023-01-18T18:30:17.716Z,8.68
2023-01-18T18:32:45.056Z,8.73
2023-01-18T18:35:24.400Z,11.20
2023-01-18T18:37:54.276Z,9.85
2023-01-18T18:40:22.224Z,10.60
2023-01-18T18:43:01.319Z,9.82
2023-01-18T18:45:33.731Z,8.60
2023-01-18T18:48:01.397Z,9.98
2023-01-18T18:50:29.982Z,9.10
2023-01-18T18:52:57.984Z,8.98
2023-01-18T18:55:25.468Z,9.45
2023-01-18T18:57:53.197Z,15.05
2023-01-18T19:00:20.720Z,11.43
2023-01-18T19:02:48.027Z,12.20
2023-01-18T19:05:16.438Z,23.42
2023-01-18T19:07:43.760Z,13.05
2023-01-18T19:10:13.347Z,13.50
2023-01-18T19:12:40.348Z,12.15
2023-01-18T19:15:08.233Z,10.90
2023-01-18T19:17:35.435Z,11.40
2023-01-18T19:20:02.512Z,14.05
2023-01-18T19:22:29.604Z,12.65
2023-01-18T19:24:56.820Z,12.00
2023-01-18T19:27:24.628Z,14.02
2023-01-18T19:29:53.235Z,13.07
2023-01-18T19:32:20.728Z,10.90
2023-01-18T19:34:47.861Z,9.20
2023-01-18T19:37:14.944Z,11.68
2023-01-18T19:39:41.944Z,9.57
2023-01-18T19:42:09.058Z,10.30
2023-01-18T19:44:36.427Z,16.50
2023-01-18T19:47:04.195Z,8.60
2023-01-18T19:49:31.446Z,12.50
2023-01-18T19:51:58.505Z,10.90
2023-01-18T19:54:25.628Z,11.65
2023-01-18T19:56:52.864Z,10.60
2023-01-18T19:59:20.023Z,10.85
2023-01-18T20:01:47.084Z,11.63
2023-01-18T20:04:14.708Z,10.82
2023-01-18T20:06:44.954Z,11.20
2023-01-18T20:09:19.839Z,12.50
2023-01-18T20:11:49.570Z,10.15
2023-01-18T20:14:18.483Z,9.70
2023-01-18T20:16:46.306Z,13.55
2023-01-18T20:19:14.793Z,13.52
2023-01-18T20:21:42.227Z,12.70
2023-01-18T20:24:09.737Z,12.05
2023-01-18T20:26:39.572Z,13.63
2023-01-18T20:29:08.206Z,15.23
2023-01-18T20:31:36.729Z,14.10
2023-01-18T20:34:05.198Z,13.27
2023-01-18T20:36:35.020Z,20.13
2023-01-18T20:39:02.928Z,19.25
2023-01-18T20:41:30.003Z,15.30
2023-01-18T20:43:57.105Z,18.25
2023-01-18T20:46:24.439Z,17.52
2023-01-18T20:48:51.502Z,18.60
2023-01-18T20:51:18.563Z,16.50
2023-01-18T20:53:45.754Z,16.27
2023-01-18T20:56:27.874Z,20.42
2023-01-18T20:58:55.761Z,14.23
2023-01-18T21:01:22.948Z,18.65
2023-01-18T21:03:55.423Z,21.45
2023-01-18T21:06:22.926Z,16.73
2023-01-18T21:08:54.686Z,16.63
2023-01-18T21:11:23.165Z,15.23
2023-01-18T21:13:50.520Z,14.88
2023-01-18T21:16:17.925Z,15.60
2023-01-18T21:18:44.957Z,16.65
2023-01-18T21:21:12.949Z,15.88
2023-01-18T21:23:40.367Z,13.00
2023-01-18T21:26:10.386Z,16.35
2023-01-18T21:28:37.428Z,14.70
2023-01-18T21:31:04.879Z,17.50
2023-01-18T21:33:32.580Z,18.38
2023-01-18T21:36:13.865Z,20.42
2023-01-18T21:38:41.480Z,16.08
2023-01-18T21:41:27.912Z,15.60
2023-01-18T21:44:14.505Z,13.93
2023-01-18T21:46:51.993Z,14.55
2023-01-18T21:52:44.534Z,16.60
2023-01-18T21:55:12.071Z,16.27
2023-01-18T21:57:39.024Z,18.08
2023-01-18T22:00:07.172Z,16.65
2023-01-18T22:02:35.016Z,14.98
2023-01-18T22:05:05.643Z,17.88
2023-01-18T22:07:34.755Z,19.58
2023-01-18T22:10:07.068Z,20.08
2023-01-18T22:12:35.855Z,22.25
2023-01-18T22:15:04.810Z,19.77
2023-01-18T22:17:31.946Z,20.20
2023-01-18T22:19:59.880Z,19.13
2023-01-18T22:22:27.263Z,17.27
2023-01-18T22:24:54.718Z,18.55
2023-01-18T22:27:21.633Z,20.20
2023-01-18T22:29:49.100Z,19.05
2023-01-18T22:32:16.532Z,14.73
2023-01-18T22:34:43.725Z,19.70
2023-01-18T22:37:10.750Z,17.92
2023-01-18T22:39:37.982Z,17.13
2023-01-18T22:42:05.338Z,18.73
2023-01-18T22:44:32.922Z,19.05
2023-01-18T22:47:00.190Z,17.70
2023-01-18T22:49:27.223Z,16.30
2023-01-18T22:51:54.208Z,18.30
2023-01-18T22:54:22.901Z,15.70
2023-01-18T22:56:50.253Z,16.58
2023-01-18T22:59:17.546Z,17.50
2023-01-18T23:01:44.803Z,16.63
2023-01-18T23:04:12.383Z,19.73
2023-01-18T23:06:46.605Z,16.42
2023-01-18T23:09:17.734Z,16.33
2023-01-18T23:11:47.491Z,16.10
2023-01-18T23:14:33.151Z,17.27
2023-01-18T23:17:18.740Z,16.73
2023-01-18T23:19:46.936Z,15.10
2023-01-18T23:22:14.063Z,18.50
2023-01-18T23:24:41.081Z,15.20
2023-01-18T23:27:10.134Z,16.73
2023-01-18T23:29:38.500Z,17.08
2023-01-18T23:32:05.933Z,14.55
2023-01-18T23:34:32.930Z,16.65
2023-01-18T23:37:00.349Z,15.95
2023-01-18T23:39:46.161Z,16.42
2023-01-18T23:42:32.251Z,15.65
2023-01-18T23:45:18.436Z,18.05
2023-01-18T23:48:04.462Z,20.45
2023-01-18T23:50:50.086Z,16.50
2023-01-18T23:53:36.151Z,15.98
2023-01-18T23:56:03.135Z,18.38
2023-01-18T23:58:30.349Z,15.13
